createdAt,value
2022-08-24T00:01:27.268Z,2.70
2022-08-24T00:03:57.297Z,4.13
2022-08-24T00:06:25.465Z,3.90
2022-08-24T00:08:55.470Z,3.80
2022-08-24T00:11:23.546Z,2.07
2022-08-24T00:13:51.544Z,1.90
2022-08-24T00:16:19.605Z,2.80
2022-08-24T00:18:48.081Z,2.70
2022-08-24T00:21:16.164Z,2.23
2022-08-24T00:23:44.100Z,1.93
2022-08-24T00:26:14.208Z,1.10
2022-08-24T00:28:42.250Z,2.23
2022-08-24T00:31:10.700Z,1.27
2022-08-24T00:33:40.508Z,2.03
2022-08-24T00:36:08.531Z,2.30
2022-08-24T00:38:37.158Z,1.27
2022-08-24T00:41:05.574Z,1.73
2022-08-24T00:43:35.058Z,1.77
2022-08-24T00:46:09.628Z,1.03
2022-08-24T00:48:40.181Z,2.13
2022-08-24T00:51:09.988Z,1.67
2022-08-24T00:53:40.784Z,1.30
2022-08-24T00:56:11.238Z,2.23
2022-08-24T00:58:43.063Z,1.23
2022-08-24T01:01:11.385Z,1.20
2022-08-24T01:03:39.517Z,0.83
2022-08-24T01:06:07.637Z,0.70
2022-08-24T01:08:35.699Z,1.10
2022-08-24T01:11:06.357Z,1.23
2022-08-24T01:13:34.521Z,2.37
2022-08-24T01:16:05.770Z,1.03
2022-08-24T01:18:50.728Z,0.90
2022-08-24T01:21:20.112Z,1.00
2022-08-24T01:23:49.876Z,0.40
2022-08-24T01:26:20.273Z,1.43
2022-08-24T01:28:49.587Z,1.10
2022-08-24T01:31:21.182Z,0.73
2022-08-24T01:33:50.782Z,0.50
2022-08-24T01:36:21.176Z,0.50
2022-08-24T01:38:58.532Z,1.33
2022-08-24T01:41:29.050Z,1.40
2022-08-24T01:43:57.529Z,1.13
2022-08-24T01:46:25.560Z,1.23
2022-08-24T01:48:53.650Z,2.50
2022-08-24T01:51:22.067Z,1.17
2022-08-24T01:53:50.119Z,2.70
2022-08-24T01:56:19.443Z,1.70
2022-08-24T01:58:47.563Z,2.00
2022-08-24T02:01:15.574Z,0.80
2022-08-24T02:03:43.700Z,3.33
2022-08-24T02:06:11.706Z,2.27
2022-08-24T02:08:39.648Z,1.67
2022-08-24T02:11:08.679Z,2.30
2022-08-24T02:13:38.204Z,1.17
2022-08-24T02:16:07.133Z,2.70
2022-08-24T02:18:35.190Z,2.53
2022-08-24T02:21:03.125Z,6.30
2022-08-24T02:23:31.126Z,3.07
2022-08-24T02:25:59.640Z,4.33
2022-08-24T02:28:28.670Z,2.73
2022-08-24T02:30:58.073Z,2.43
2022-08-24T02:33:26.106Z,3.60
2022-08-24T02:35:54.463Z,3.00
2022-08-24T02:38:22.471Z,2.90
2022-08-24T02:40:50.458Z,4.07
2022-08-24T02:43:18.407Z,4.23
2022-08-24T02:45:50.234Z,3.87
2022-08-24T02:48:20.204Z,3.53
2022-08-24T02:50:49.175Z,4.40
2022-08-24T02:53:17.712Z,3.63
2022-08-24T02:55:45.682Z,3.20
2022-08-24T02:58:14.096Z,6.63
2022-08-24T03:00:42.394Z,4.73
2022-08-24T03:03:11.492Z,6.10
2022-08-24T03:05:40.772Z,3.70
2022-08-24T03:08:08.738Z,2.67
2022-08-24T03:10:36.724Z,5.73
2022-08-24T03:13:04.934Z,5.40
2022-08-24T03:15:33.176Z,5.00
2022-08-24T03:18:01.118Z,3.97
2022-08-24T03:20:29.389Z,4.00
2022-08-24T03:22:58.833Z,2.87
2022-08-24T03:25:28.050Z,4.07
2022-08-24T03:27:56.048Z,3.07
2022-08-24T03:30:24.268Z,5.07
2022-08-24T03:32:52.543Z,4.90
2022-08-24T03:35:21.953Z,4.43
2022-08-24T03:37:50.876Z,3.93
2022-08-24T03:40:24.782Z,5.47
2022-08-24T03:42:53.069Z,4.70
2022-08-24T03:45:21.504Z,8.43
2022-08-24T03:47:49.466Z,8.40
2022-08-24T03:50:17.502Z,7.40
2022-08-24T03:52:45.424Z,8.90
2022-08-24T03:55:13.772Z,5.93
2022-08-24T03:57:43.091Z,8.87
2022-08-24T04:00:12.385Z,8.67
2022-08-24T04:02:40.413Z,5.87
2022-08-24T04:05:08.890Z,6.33
2022-08-24T04:07:36.972Z,9.27
2022-08-24T04:10:05.309Z,6.03
2022-08-24T04:12:33.280Z,9.57
2022-08-24T04:15:02.629Z,8.07
2022-08-24T04:17:30.599Z,6.10
2022-08-24T04:19:58.563Z,8.07
2022-08-24T04:22:26.561Z,7.97
2022-08-24T04:24:54.740Z,8.50
2022-08-24T04:27:22.738Z,8.83
2022-08-24T04:29:51.089Z,5.70
2022-08-24T04:32:20.648Z,6.17
2022-08-24T04:34:48.600Z,7.70
2022-08-24T04:37:17.696Z,5.23
2022-08-24T04:39:50.785Z,13.67
2022-08-24T04:42:19.946Z,8.20
2022-08-24T04:44:47.898Z,7.93
2022-08-24T04:47:15.863Z,5.30
2022-08-24T04:49:45.145Z,7.27
2022-08-24T04:52:13.149Z,5.63
2022-08-24T04:54:41.090Z,6.77
2022-08-24T04:57:09.030Z,5.47
2022-08-24T04:59:36.994Z,3.87
2022-08-24T05:02:05.021Z,7.83
2022-08-24T05:04:33.019Z,5.40
2022-08-24T05:07:02.348Z,7.00
2022-08-24T05:09:30.608Z,4.07
2022-08-24T05:11:59.958Z,3.83
2022-08-24T05:14:29.247Z,4.47
2022-08-24T05:16:57.368Z,2.13
2022-08-24T05:19:25.356Z,6.70
2022-08-24T05:21:53.304Z,4.30
2022-08-24T05:24:23.251Z,2.90
2022-08-24T05:26:53.161Z,2.03
2022-08-24T05:29:21.499Z,2.17
2022-08-24T05:31:49.554Z,2.03
2022-08-24T05:34:17.527Z,3.33
2022-08-24T05:36:45.557Z,4.40
2022-08-24T05:39:14.573Z,4.33
2022-08-24T05:41:45.220Z,5.80
2022-08-24T05:44:13.409Z,2.97
2022-08-24T05:46:41.457Z,3.37
2022-08-24T05:49:09.497Z,1.50
2022-08-24T05:51:37.472Z,1.87
2022-08-24T05:54:06.380Z,1.47
2022-08-24T05:56:34.341Z,1.53
2022-08-24T05:59:03.714Z,2.07
2022-08-24T06:01:31.738Z,1.83
2022-08-24T06:04:00.045Z,1.30
2022-08-24T06:06:28.288Z,1.20
2022-08-24T06:08:58.708Z,4.10
2022-08-24T06:11:30.084Z,4.70
2022-08-24T06:14:00.066Z,2.07
2022-08-24T06:16:29.427Z,2.47
2022-08-24T06:18:57.461Z,1.43
2022-08-24T06:21:28.231Z,1.33
2022-08-24T06:23:56.623Z,1.20
2022-08-24T06:26:41.920Z,1.90
2022-08-24T06:29:10.556Z,0.63
2022-08-24T06:31:42.005Z,0.77
2022-08-24T06:34:10.394Z,1.50
2022-08-24T06:36:40.041Z,1.43
2022-08-24T06:39:08.867Z,2.53
2022-08-24T06:41:39.486Z,0.93
2022-08-24T06:44:07.533Z,1.53
2022-08-24T06:46:36.413Z,1.67
2022-08-24T06:49:05.879Z,2.70
2022-08-24T06:51:33.850Z,1.10
2022-08-24T06:54:01.870Z,4.03
2022-08-24T06:56:30.042Z,0.93
2022-08-24T06:58:58.027Z,3.30
2022-08-24T07:01:26.895Z,1.20
2022-08-24T07:03:54.959Z,1.20
2022-08-24T07:06:24.799Z,2.40
2022-08-24T07:08:52.795Z,2.67
2022-08-24T07:11:21.963Z,1.60
2022-08-24T07:13:50.231Z,0.60
2022-08-24T07:16:18.555Z,5.13
2022-08-24T07:18:49.922Z,1.70
2022-08-24T07:21:19.551Z,1.00
2022-08-24T07:23:51.566Z,0.80
2022-08-24T07:26:22.783Z,1.10
2022-08-24T07:28:53.742Z,0.90
2022-08-24T07:31:22.040Z,1.50
2022-08-24T07:33:50.307Z,0.80
2022-08-24T07:36:22.662Z,0.50
2022-08-24T07:38:53.207Z,0.60
2022-08-24T07:41:46.844Z,0.77
2022-08-24T07:44:09.565Z,1.10
2022-08-24T07:46:37.894Z,0.73
2022-08-24T07:49:12.543Z,1.47
2022-08-24T07:51:48.670Z,0.90
2022-08-24T07:54:18.079Z,1.50
2022-08-24T07:56:46.079Z,0.70
2022-08-24T07:59:14.545Z,0.83
2022-08-24T08:01:42.669Z,1.37
2022-08-24T08:04:10.822Z,1.30
2022-08-24T08:06:38.841Z,1.40
2022-08-24T08:09:06.884Z,0.80
2022-08-24T08:11:36.269Z,0.60
2022-08-24T08:14:04.202Z,0.53
2022-08-24T08:16:32.397Z,0.50
2022-08-24T08:19:09.845Z,1.20
2022-08-24T08:22:00.194Z,1.93
2022-08-24T08:24:28.300Z,0.77
2022-08-24T08:26:59.333Z,0.63
2022-08-24T08:29:27.516Z,2.83
2022-08-24T08:31:56.266Z,1.23
2022-08-24T08:34:24.386Z,1.23
2022-08-24T08:36:52.543Z,1.40
2022-08-24T08:39:21.739Z,1.50
2022-08-24T08:42:17.281Z,0.77
2022-08-24T08:45:16.547Z,0.87
2022-08-24T08:48:11.782Z,0.73
2022-08-24T08:50:47.687Z,0.50
2022-08-24T08:54:03.021Z,1.63
2022-08-24T08:56:37.261Z,1.63
2022-08-24T08:59:08.539Z,0.30
2022-08-24T09:01:46.605Z,0.43
2022-08-24T09:04:42.892Z,0.37
2022-08-24T09:07:21.063Z,0.47
2022-08-24T09:10:12.219Z,2.00
2022-08-24T09:12:50.278Z,0.40
2022-08-24T09:15:37.343Z,0.70
2022-08-24T09:18:14.020Z,1.17
2022-08-24T09:21:02.424Z,0.70
2022-08-24T09:23:33.277Z,5.07
2022-08-24T09:26:03.936Z,0.70
2022-08-24T09:28:43.800Z,0.50
2022-08-24T09:34:10.168Z,1.10
2022-08-24T09:36:58.829Z,2.17
2022-08-24T09:39:49.902Z,0.43
2022-08-24T09:42:45.833Z,0.40
2022-08-24T09:45:42.004Z,0.80
2022-08-24T09:48:23.913Z,2.07
2022-08-24T09:51:14.296Z,0.37
2022-08-24T09:54:06.414Z,0.53
2022-08-24T09:56:46.438Z,0.30
2022-08-24T09:59:25.844Z,0.20
2022-08-24T10:01:57.540Z,0.60
2022-08-24T10:04:29.011Z,0.40
2022-08-24T10:07:04.656Z,0.30
2022-08-24T10:10:11.587Z,2.00
2022-08-24T10:12:56.513Z,0.60
2022-08-24T10:15:29.032Z,0.30
2022-08-24T10:18:09.773Z,0.50
2022-08-24T10:21:01.905Z,1.10
2022-08-24T10:23:41.093Z,0.50
2022-08-24T10:26:13.142Z,3.40
2022-08-24T10:28:52.359Z,0.40
2022-08-24T10:31:22.034Z,1.00
2022-08-24T10:33:57.313Z,1.43
2022-08-24T10:36:50.852Z,1.17
2022-08-24T10:39:43.887Z,0.73
2022-08-24T10:43:06.417Z,0.40
2022-08-24T10:45:43.813Z,0.57
2022-08-24T10:48:38.318Z,0.80
2022-08-24T10:51:11.055Z,0.30
2022-08-24T10:53:40.008Z,0.77
2022-08-24T10:56:11.526Z,0.43
2022-08-24T10:58:46.573Z,0.40
2022-08-24T11:01:24.142Z,0.30
2022-08-24T11:04:04.458Z,0.40
2022-08-24T11:06:34.199Z,0.67
2022-08-24T11:09:05.504Z,0.73
2022-08-24T11:11:36.244Z,1.37
2022-08-24T11:14:10.233Z,1.83
2022-08-24T11:16:39.590Z,0.30
2022-08-24T11:19:13.216Z,1.63
2022-08-24T11:21:52.011Z,0.80
2022-08-24T11:24:29.212Z,0.90
2022-08-24T11:27:00.394Z,0.30
2022-08-24T11:29:31.462Z,1.10
2022-08-24T11:31:59.938Z,0.40
2022-08-24T11:34:36.723Z,0.37
2022-08-24T11:37:06.024Z,0.53
2022-08-24T11:39:35.890Z,0.50
2022-08-24T11:42:11.467Z,4.13
2022-08-24T11:44:46.714Z,1.90
2022-08-24T11:47:27.250Z,0.50
2022-08-24T11:49:59.887Z,1.40
2022-08-24T11:52:34.708Z,1.63
2022-08-24T11:55:06.172Z,1.67
2022-08-24T11:57:47.620Z,1.30
2022-08-24T12:00:18.873Z,1.20
2022-08-24T12:02:52.608Z,0.57
2022-08-24T12:05:26.150Z,2.07
2022-08-24T12:08:04.346Z,0.70
2022-08-24T12:10:38.268Z,0.40
2022-08-24T12:13:10.365Z,0.67
2022-08-24T12:15:47.631Z,0.50
2022-08-24T12:18:25.066Z,0.50
2022-08-24T12:20:53.555Z,0.50
2022-08-24T12:23:25.755Z,0.60
2022-08-24T12:26:05.316Z,0.50
2022-08-24T12:28:37.614Z,0.60
2022-08-24T12:31:14.293Z,0.67
2022-08-24T12:33:46.290Z,0.97
2022-08-24T12:36:19.487Z,0.63
2022-08-24T12:38:49.833Z,0.60
2022-08-24T12:41:20.614Z,0.77
2022-08-24T12:43:52.771Z,0.60
2022-08-24T12:46:22.566Z,0.40
2022-08-24T12:48:55.036Z,0.53
2022-08-24T12:51:25.855Z,0.60
2022-08-24T12:54:16.079Z,0.50
2022-08-24T12:57:06.059Z,0.97
2022-08-24T12:59:38.069Z,0.50
2022-08-24T13:02:08.212Z,0.60
2022-08-24T13:04:39.231Z,1.20
2022-08-24T13:07:09.469Z,0.40
2022-08-24T13:09:38.323Z,0.73
2022-08-24T13:12:46.927Z,2.93
2022-08-24T13:15:28.445Z,0.50
2022-08-24T13:18:02.660Z,0.50
2022-08-24T13:20:53.545Z,2.97
2022-08-24T13:23:22.261Z,2.30
2022-08-24T13:25:56.449Z,0.40
2022-08-24T13:28:39.807Z,0.40
2022-08-24T13:31:28.224Z,0.60
2022-08-24T13:34:00.352Z,0.47
2022-08-24T13:36:47.204Z,0.57
2022-08-24T13:39:36.406Z,0.60
2022-08-24T13:42:14.793Z,1.17
2022-08-24T13:45:01.596Z,1.57
2022-08-24T13:47:35.007Z,0.60
2022-08-24T13:50:09.323Z,0.70
2022-08-24T13:52:49.268Z,0.50
2022-08-24T13:55:29.484Z,0.70
2022-08-24T13:58:18.085Z,0.70
2022-08-24T14:00:48.836Z,0.80
2022-08-24T14:03:57.668Z,2.87
2022-08-24T14:06:31.442Z,1.00
2022-08-24T14:09:18.895Z,1.07
2022-08-24T14:12:01.261Z,0.53
2022-08-24T14:14:51.021Z,1.00
2022-08-24T14:17:40.650Z,1.53
2022-08-24T14:20:14.360Z,0.90
2022-08-24T14:23:00.574Z,0.90
2022-08-24T14:25:30.541Z,0.47
2022-08-24T14:28:37.592Z,0.57
2022-08-24T14:31:17.636Z,2.50
2022-08-24T14:33:52.911Z,2.30
2022-08-24T14:36:23.093Z,1.93
2022-08-24T14:38:57.031Z,2.30
2022-08-24T14:41:35.534Z,1.97
2022-08-24T14:44:26.317Z,1.77
2022-08-24T14:47:00.770Z,2.53
2022-08-24T14:49:35.041Z,1.03
2022-08-24T14:52:14.796Z,2.50
2022-08-24T14:54:49.704Z,0.40
2022-08-24T14:57:23.555Z,0.50
2022-08-24T14:59:58.859Z,0.47
2022-08-24T15:02:44.383Z,0.40
2022-08-24T15:05:18.328Z,2.47
2022-08-24T15:07:56.009Z,0.77
2022-08-24T15:10:26.482Z,0.93
2022-08-24T15:13:01.418Z,2.23
2022-08-24T15:15:34.050Z,0.50
2022-08-24T15:18:06.806Z,0.60
2022-08-24T15:20:55.311Z,0.87
2022-08-24T15:23:28.210Z,0.50
2022-08-24T15:25:58.061Z,0.43
2022-08-24T15:28:28.708Z,0.97
2022-08-24T15:30:59.082Z,0.50
2022-08-24T15:33:27.653Z,0.67
2022-08-24T15:36:06.679Z,0.60
2022-08-24T15:38:37.056Z,0.80
2022-08-24T15:41:06.980Z,4.23
2022-08-24T15:43:35.108Z,0.73
2022-08-24T15:46:03.194Z,0.70
2022-08-24T15:48:31.891Z,0.37
2022-08-24T15:51:01.063Z,0.53
2022-08-24T15:53:36.543Z,0.57
2022-08-24T15:56:35.319Z,1.90
2022-08-24T15:59:09.410Z,1.60
2022-08-24T16:01:55.361Z,0.50
2022-08-24T16:04:42.320Z,0.47
2022-08-24T16:07:15.675Z,0.80
2022-08-24T16:09:45.212Z,0.97
2022-08-24T16:12:16.387Z,0.50
2022-08-24T16:14:47.184Z,0.57
2022-08-24T16:17:30.731Z,4.70
2022-08-24T16:19:59.672Z,0.40
2022-08-24T16:22:31.214Z,1.23
2022-08-24T16:25:13.488Z,4.40
2022-08-24T16:28:01.086Z,2.53
2022-08-24T16:30:37.521Z,0.67
2022-08-24T16:33:06.183Z,1.93
2022-08-24T16:35:34.433Z,1.30
2022-08-24T16:38:04.020Z,0.73
2022-08-24T16:40:35.304Z,0.60
2022-08-24T16:43:03.988Z,1.00
2022-08-24T16:45:35.841Z,0.77
2022-08-24T16:48:04.911Z,2.20
2022-08-24T16:50:33.167Z,0.90
2022-08-24T16:53:01.180Z,0.53
2022-08-24T16:55:29.419Z,0.97
2022-08-24T16:58:01.536Z,1.83
2022-08-24T17:00:30.094Z,1.80
2022-08-24T17:02:58.147Z,0.83
2022-08-24T17:05:26.249Z,0.90
2022-08-24T17:07:54.287Z,0.87
2022-08-24T17:10:23.655Z,1.83
2022-08-24T17:12:51.805Z,0.83
2022-08-24T17:15:21.622Z,0.70
2022-08-24T17:17:54.585Z,1.17
2022-08-24T17:20:22.753Z,1.70
2022-08-24T17:22:51.747Z,1.77
2022-08-24T17:25:19.872Z,3.90
2022-08-24T17:27:47.888Z,5.77
2022-08-24T17:30:18.547Z,10.60
2022-08-24T17:32:48.643Z,7.33
2022-08-24T17:35:16.942Z,6.20
2022-08-24T17:37:45.018Z,5.53
2022-08-24T17:40:14.568Z,1.40
2022-08-24T17:42:51.463Z,3.67
2022-08-24T17:45:20.394Z,1.53
2022-08-24T17:47:49.809Z,0.63
2022-08-24T17:50:19.332Z,0.60
2022-08-24T17:52:47.731Z,0.53
2022-08-24T17:55:17.147Z,0.97
2022-08-24T17:57:52.035Z,0.67
2022-08-24T18:00:20.179Z,2.07
2022-08-24T18:02:50.924Z,1.47
2022-08-24T18:05:19.135Z,0.50
2022-08-24T18:07:55.667Z,0.87
2022-08-24T18:10:25.292Z,1.03
2022-08-24T18:12:53.667Z,1.40
2022-08-24T18:15:22.905Z,1.37
2022-08-24T18:18:06.851Z,0.67
2022-08-24T18:20:38.563Z,0.60
2022-08-24T18:23:11.577Z,1.73
2022-08-24T18:25:43.240Z,0.93
2022-08-24T18:28:11.338Z,0.90
2022-08-24T18:30:40.933Z,0.87
2022-08-24T18:33:10.555Z,1.00
2022-08-24T18:35:38.625Z,1.07
2022-08-24T18:38:06.810Z,0.93
2022-08-24T18:40:35.271Z,3.00
2022-08-24T18:43:04.522Z,0.63
2022-08-24T18:45:33.274Z,0.63
2022-08-24T18:48:01.651Z,0.60
2022-08-24T18:50:37.699Z,1.00
2022-08-24T18:53:08.438Z,2.00
2022-08-24T18:55:37.674Z,1.47
2022-08-24T18:58:05.921Z,1.00
2022-08-24T19:00:34.204Z,1.10
2022-08-24T19:03:04.039Z,1.90
2022-08-24T19:05:33.788Z,0.80
2022-08-24T19:08:01.849Z,0.97
2022-08-24T19:10:31.109Z,4.83
2022-08-24T19:13:03.284Z,1.67
2022-08-24T19:15:39.521Z,1.23
2022-08-24T19:18:09.877Z,3.77
2022-08-24T19:20:42.345Z,1.03
2022-08-24T19:23:14.860Z,1.30
2022-08-24T19:25:44.563Z,1.93
2022-08-24T19:28:12.655Z,0.90
2022-08-24T19:30:42.094Z,1.00
2022-08-24T19:33:14.077Z,0.90
2022-08-24T19:35:43.906Z,1.90
2022-08-24T19:38:11.929Z,1.67
2022-08-24T19:40:39.990Z,0.90
2022-08-24T19:43:15.853Z,0.73
2022-08-24T19:46:01.535Z,1.00
2022-08-24T19:48:30.221Z,1.17
2022-08-24T19:51:00.447Z,1.13
2022-08-24T19:53:28.635Z,2.67
2022-08-24T19:55:56.672Z,1.13
2022-08-24T19:58:30.580Z,1.20
2022-08-24T20:00:59.580Z,2.03
2022-08-24T20:03:27.747Z,9.77
2022-08-24T20:05:55.809Z,1.73
2022-08-24T20:08:25.230Z,1.30
2022-08-24T20:10:58.611Z,1.30
2022-08-24T20:13:26.706Z,2.37
2022-08-24T20:15:54.886Z,1.10
2022-08-24T20:18:24.359Z,1.97
2022-08-24T20:20:52.395Z,1.50
2022-08-24T20:23:20.491Z,1.77
2022-08-24T20:25:51.191Z,1.37
2022-08-24T20:28:38.126Z,1.50
2022-08-24T20:31:06.908Z,3.67
2022-08-24T20:33:34.989Z,1.60
2022-08-24T20:36:03.315Z,2.13
2022-08-24T20:38:32.273Z,1.40
2022-08-24T20:41:01.791Z,0.83
2022-08-24T20:43:29.913Z,3.13
2022-08-24T20:45:57.965Z,1.83
2022-08-24T20:48:28.229Z,2.90
2022-08-24T20:50:56.401Z,1.07
2022-08-24T20:53:24.996Z,2.70
2022-08-24T20:55:53.002Z,2.20
2022-08-24T20:58:22.948Z,2.70
2022-08-24T21:00:51.012Z,1.20
2022-08-24T21:03:19.862Z,1.30
2022-08-24T21:05:48.513Z,1.67
2022-08-24T21:08:16.538Z,1.20
2022-08-24T21:10:44.938Z,1.17
2022-08-24T21:13:13.584Z,1.23
2022-08-24T21:15:43.098Z,1.40
2022-08-24T21:18:11.326Z,2.20
2022-08-24T21:20:44.730Z,1.00
2022-08-24T21:23:29.488Z,1.03
2022-08-24T21:25:57.527Z,1.57
2022-08-24T21:28:25.601Z,1.60
2022-08-24T21:30:55.215Z,4.30
2022-08-24T21:33:37.419Z,1.37
2022-08-24T21:36:06.136Z,1.07
2022-08-24T21:38:35.799Z,1.03
2022-08-24T21:41:04.282Z,1.37
2022-08-24T21:43:32.859Z,1.20
2022-08-24T21:46:02.283Z,0.80
2022-08-24T21:48:30.299Z,1.17
2022-08-24T21:50:58.599Z,3.07
2022-08-24T21:53:27.511Z,1.00
2022-08-24T21:55:56.727Z,2.87
2022-08-24T21:58:26.484Z,1.50
2022-08-24T22:00:54.559Z,2.67
2022-08-24T22:03:31.680Z,1.50
2022-08-24T22:06:08.578Z,1.63
2022-08-24T22:08:36.702Z,1.80
2022-08-24T22:11:04.883Z,2.50
2022-08-24T22:13:32.948Z,1.47
2022-08-24T22:16:01.074Z,1.90
2022-08-24T22:18:30.568Z,1.30
2022-08-24T22:20:58.560Z,1.30
2022-08-24T22:23:26.694Z,1.60
2022-08-24T22:25:54.883Z,1.30
2022-08-24T22:28:24.284Z,2.87
2022-08-24T22:30:52.363Z,1.10
2022-08-24T22:33:20.403Z,1.20
2022-08-24T22:35:50.450Z,1.70
2022-08-24T22:38:18.589Z,1.97
2022-08-24T22:40:47.997Z,3.57
2022-08-24T22:43:16.145Z,1.43
2022-08-24T22:45:44.180Z,1.20
2022-08-24T22:48:12.436Z,1.63
2022-08-24T22:50:44.065Z,2.60
2022-08-24T22:53:13.768Z,1.50
2022-08-24T22:55:42.068Z,1.40
2022-08-24T22:58:10.160Z,2.70
2022-08-24T23:00:40.424Z,1.23
2022-08-24T23:03:08.464Z,3.20
2022-08-24T23:05:36.479Z,2.13
2022-08-24T23:08:06.667Z,3.20
2022-08-24T23:10:36.059Z,2.33
2022-08-24T23:13:04.171Z,2.13
2022-08-24T23:15:32.381Z,2.23
2022-08-24T23:18:20.460Z,2.17
2022-08-24T23:20:47.475Z,2.20
2022-08-24T23:23:15.518Z,4.77
2022-08-24T23:25:44.929Z,1.47
2022-08-24T23:28:13.359Z,1.73
2022-08-24T23:30:41.421Z,2.23
2022-08-24T23:33:09.592Z,2.37
2022-08-24T23:35:37.844Z,2.73
2022-08-24T23:38:05.845Z,1.80
2022-08-24T23:40:37.223Z,2.30
2022-08-24T23:43:06.615Z,2.73
2022-08-24T23:45:35.820Z,1.73
2022-08-24T23:48:04.350Z,2.80
2022-08-24T23:50:32.497Z,3.50
2022-08-24T23:53:00.496Z,3.27
2022-08-24T23:55:28.699Z,3.23
2022-08-24T23:57:56.685Z,3.17
